sensor_id;sensor_type;location;lat;lon;timestamp;pressure;altitude;pressure_sealevel;temperature;humidity
9740;BME280;4909;42.680;26.324;2023-09-12T00:01:10;98791.97;;;20.76;68.87
9740;BME280;4909;42.680;26.324;2023-09-12T00:03:37;98788.53;;;20.74;68.99
9740;BME280;4909;42.680;26.324;2023-09-12T00:06:04;98788.50;;;20.85;68.40
9740;BME280;4909;42.680;26.324;2023-09-12T00:08:30;98789.81;;;20.91;68.42
9740;BME280;4909;42.680;26.324;2023-09-12T00:11:01;98790.81;;;20.90;68.59
9740;BME280;4909;42.680;26.324;2023-09-12T00:13:30;98792.47;;;21.02;67.77
9740;BME280;4909;42.680;26.324;2023-09-12T00:15:57;98789.38;;;21.06;68.26
9740;BME280;4909;42.680;26.324;2023-09-12T00:18:24;98792.47;;;21.02;67.91
9740;BME280;4909;42.680;26.324;2023-09-12T00:20:51;98794.69;;;20.97;68.54
9740;BME280;4909;42.680;26.324;2023-09-12T00:23:19;98795.06;;;20.92;68.27
9740;BME280;4909;42.680;26.324;2023-09-12T00:25:46;98795.47;;;20.88;68.31
9740;BME280;4909;42.680;26.324;2023-09-12T00:28:13;98786.50;;;20.87;68.41
9740;BME280;4909;42.680;26.324;2023-09-12T00:30:41;98790.69;;;20.91;68.45
9740;BME280;4909;42.680;26.324;2023-09-12T00:33:08;98789.69;;;20.92;68.18
9740;BME280;4909;42.680;26.324;2023-09-12T00:35:34;98780.41;;;20.85;68.89
9740;BME280;4909;42.680;26.324;2023-09-12T00:38:01;98782.53;;;20.70;68.75
9740;BME280;4909;42.680;26.324;2023-09-12T00:40:28;98786.81;;;20.73;69.50
9740;BME280;4909;42.680;26.324;2023-09-12T00:42:54;98787.94;;;20.70;69.47
9740;BME280;4909;42.680;26.324;2023-09-12T00:45:21;98783.78;;;20.66;69.66
9740;BME280;4909;42.680;26.324;2023-09-12T00:47:49;98774.59;;;20.58;69.55
9740;BME280;4909;42.680;26.324;2023-09-12T00:50:19;98780.63;;;20.61;69.98
9740;BME280;4909;42.680;26.324;2023-09-12T00:52:47;98789.31;;;20.54;70.21
9740;BME280;4909;42.680;26.324;2023-09-12T00:55:14;98782.19;;;20.64;69.66
9740;BME280;4909;42.680;26.324;2023-09-12T00:57:41;98786.88;;;20.62;70.02
9740;BME280;4909;42.680;26.324;2023-09-12T01:00:11;98784.50;;;20.68;69.67
9740;BME280;4909;42.680;26.324;2023-09-12T01:02:39;98789.91;;;20.68;69.85
9740;BME280;4909;42.680;26.324;2023-09-12T01:05:09;98777.66;;;20.64;69.45
9740;BME280;4909;42.680;26.324;2023-09-12T01:07:37;98788.06;;;20.69;69.61
9740;BME280;4909;42.680;26.324;2023-09-12T01:10:05;98790.25;;;20.75;69.47
9740;BME280;4909;42.680;26.324;2023-09-12T01:12:32;98788.41;;;20.75;69.62
9740;BME280;4909;42.680;26.324;2023-09-12T01:14:59;98787.56;;;20.75;69.77
9740;BME280;4909;42.680;26.324;2023-09-12T01:17:26;98788.75;;;20.82;69.31
9740;BME280;4909;42.680;26.324;2023-09-12T01:19:53;98793.66;;;20.77;69.50
9740;BME280;4909;42.680;26.324;2023-09-12T01:22:40;98788.19;;;20.67;69.40
9740;BME280;4909;42.680;26.324;2023-09-12T01:28:16;98779.78;;;20.50;70.49
9740;BME280;4909;42.680;26.324;2023-09-12T01:30:45;98776.38;;;20.48;70.67
9740;BME280;4909;42.680;26.324;2023-09-12T01:33:13;98778.44;;;20.44;70.40
9740;BME280;4909;42.680;26.324;2023-09-12T01:35:40;98777.84;;;20.41;71.03
9740;BME280;4909;42.680;26.324;2023-09-12T01:38:07;98784.09;;;20.41;70.67
9740;BME280;4909;42.680;26.324;2023-09-12T01:40:39;98778.53;;;20.54;70.40
9740;BME280;4909;42.680;26.324;2023-09-12T01:43:08;98778.69;;;20.52;70.09
9740;BME280;4909;42.680;26.324;2023-09-12T01:45:37;98780.63;;;20.50;70.75
9740;BME280;4909;42.680;26.324;2023-09-12T01:48:05;98774.75;;;20.56;70.31
9740;BME280;4909;42.680;26.324;2023-09-12T01:50:33;98770.72;;;20.51;70.62
9740;BME280;4909;42.680;26.324;2023-09-12T01:53:00;98774.94;;;20.32;71.15
9740;BME280;4909;42.680;26.324;2023-09-12T01:55:27;98773.69;;;20.25;71.78
9740;BME280;4909;42.680;26.324;2023-09-12T01:57:54;98771.25;;;20.22;71.93
9740;BME280;4909;42.680;26.324;2023-09-12T02:00:22;98769.53;;;20.10;71.85
9740;BME280;4909;42.680;26.324;2023-09-12T02:02:50;98767.09;;;20.18;72.11
9740;BME280;4909;42.680;26.324;2023-09-12T02:05:18;98765.72;;;20.35;71.16
9740;BME280;4909;42.680;26.324;2023-09-12T02:07:46;98733.03;;;20.17;71.36
9740;BME280;4909;42.680;26.324;2023-09-12T02:10:13;98762.63;;;20.28;71.95
9740;BME280;4909;42.680;26.324;2023-09-12T02:12:40;98763.16;;;20.33;71.80
9740;BME280;4909;42.680;26.324;2023-09-12T02:15:08;98764.28;;;20.31;71.74
9740;BME280;4909;42.680;26.324;2023-09-12T02:17:35;98759.47;;;20.34;71.37
9740;BME280;4909;42.680;26.324;2023-09-12T02:20:07;98763.88;;;20.24;72.11
9740;BME280;4909;42.680;26.324;2023-09-12T02:22:34;98764.13;;;20.21;72.17
9740;BME280;4909;42.680;26.324;2023-09-12T02:25:02;98761.06;;;20.15;72.37
9740;BME280;4909;42.680;26.324;2023-09-12T02:27:30;98767.47;;;20.14;72.50
9740;BME280;4909;42.680;26.324;2023-09-12T02:29:56;98769.25;;;20.24;72.19
9740;BME280;4909;42.680;26.324;2023-09-12T02:32:23;98772.72;;;20.15;72.38
9740;BME280;4909;42.680;26.324;2023-09-12T02:34:50;98771.84;;;20.15;72.47
9740;BME280;4909;42.680;26.324;2023-09-12T02:37:20;98772.97;;;20.12;72.95
9740;BME280;4909;42.680;26.324;2023-09-12T02:39:46;98768.81;;;20.08;72.80
9740;BME280;4909;42.680;26.324;2023-09-12T02:42:13;98768.56;;;20.00;73.06
9740;BME280;4909;42.680;26.324;2023-09-12T02:44:40;98773.84;;;20.02;73.14
9740;BME280;4909;42.680;26.324;2023-09-12T02:47:06;98770.88;;;20.05;73.47
9740;BME280;4909;42.680;26.324;2023-09-12T02:49:33;98776.03;;;20.08;72.68
9740;BME280;4909;42.680;26.324;2023-09-12T02:52:00;98770.38;;;20.11;72.26
9740;BME280;4909;42.680;26.324;2023-09-12T02:54:28;98767.19;;;20.17;72.48
9740;BME280;4909;42.680;26.324;2023-09-12T02:56:55;98774.41;;;20.27;72.35
9740;BME280;4909;42.680;26.324;2023-09-12T02:59:22;98770.53;;;20.31;71.95
9740;BME280;4909;42.680;26.324;2023-09-12T03:01:48;98775.41;;;20.37;71.55
9740;BME280;4909;42.680;26.324;2023-09-12T03:04:15;98773.31;;;20.41;71.57
9740;BME280;4909;42.680;26.324;2023-09-12T03:06:42;98772.72;;;20.37;71.93
9740;BME280;4909;42.680;26.324;2023-09-12T03:09:09;98772.72;;;20.37;71.62
9740;BME280;4909;42.680;26.324;2023-09-12T03:11:37;98775.13;;;20.29;72.46
9740;BME280;4909;42.680;26.324;2023-09-12T03:14:04;98773.94;;;20.22;72.60
9740;BME280;4909;42.680;26.324;2023-09-12T03:16:31;98780.53;;;20.29;72.35
9740;BME280;4909;42.680;26.324;2023-09-12T03:18:58;98774.41;;;20.27;72.16
9740;BME280;4909;42.680;26.324;2023-09-12T03:21:26;98771.72;;;20.27;72.43
9740;BME280;4909;42.680;26.324;2023-09-12T03:23:53;98771.56;;;20.29;72.39
9740;BME280;4909;42.680;26.324;2023-09-12T03:26:20;98770.28;;;20.23;72.53
9740;BME280;4909;42.680;26.324;2023-09-12T03:28:48;98777.63;;;20.32;72.55
9740;BME280;4909;42.680;26.324;2023-09-12T03:31:15;98772.94;;;20.34;72.04
9740;BME280;4909;42.680;26.324;2023-09-12T03:33:42;98780.53;;;20.29;72.38
9740;BME280;4909;42.680;26.324;2023-09-12T03:36:13;98776.38;;;20.25;72.74
9740;BME280;4909;42.680;26.324;2023-09-12T03:38:40;98779.94;;;20.26;72.43
9740;BME280;4909;42.680;26.324;2023-09-12T03:41:06;98784.56;;;20.24;72.42
9740;BME280;4909;42.680;26.324;2023-09-12T03:43:33;98783.75;;;20.12;72.62
9740;BME280;4909;42.680;26.324;2023-09-12T03:46:01;98778.72;;;20.08;73.48
9740;BME280;4909;42.680;26.324;2023-09-12T03:48:28;98779.81;;;20.05;73.88
9740;BME280;4909;42.680;26.324;2023-09-12T03:50:56;98787.53;;;20.10;73.20
9740;BME280;4909;42.680;26.324;2023-09-12T03:53:23;98782.50;;;20.05;73.52
9740;BME280;4909;42.680;26.324;2023-09-12T03:55:49;98793.66;;;20.12;73.78
9740;BME280;4909;42.680;26.324;2023-09-12T03:58:16;98790.72;;;20.15;73.37
9740;BME280;4909;42.680;26.324;2023-09-12T04:00:43;98795.13;;;20.16;73.92
9740;BME280;4909;42.680;26.324;2023-09-12T04:03:11;98787.31;;;20.13;73.71
9740;BME280;4909;42.680;26.324;2023-09-12T04:05:37;98781.28;;;20.09;73.45
9740;BME280;4909;42.680;26.324;2023-09-12T04:08:04;98790.59;;;20.05;73.63
9740;BME280;4909;42.680;26.324;2023-09-12T04:10:31;98768.44;;;19.90;73.91
9740;BME280;4909;42.680;26.324;2023-09-12T04:12:58;98786.34;;;20.03;74.05
9740;BME280;4909;42.680;26.324;2023-09-12T04:15:25;98793.19;;;20.07;73.94
9740;BME280;4909;42.680;26.324;2023-09-12T04:17:52;98790.13;;;20.00;73.96
9740;BME280;4909;42.680;26.324;2023-09-12T04:20:20;98796.47;;;20.10;73.98
9740;BME280;4909;42.680;26.324;2023-09-12T04:22:47;98797.97;;;20.03;73.85
9740;BME280;4909;42.680;26.324;2023-09-12T04:25:13;98800.88;;;20.00;74.09
9740;BME280;4909;42.680;26.324;2023-09-12T04:27:41;98793.28;;;20.05;73.94
9740;BME280;4909;42.680;26.324;2023-09-12T04:30:09;98798.19;;;20.00;74.30
9740;BME280;4909;42.680;26.324;2023-09-12T04:32:36;98798.47;;;20.08;74.10
9740;BME280;4909;42.680;26.324;2023-09-12T04:35:03;98806.06;;;20.03;73.92
9740;BME280;4909;42.680;26.324;2023-09-12T04:37:31;98797.72;;;20.06;74.05
9740;BME280;4909;42.680;26.324;2023-09-12T04:39:58;98805.09;;;20.04;74.09
9740;BME280;4909;42.680;26.324;2023-09-12T04:42:25;98800.88;;;20.11;74.03
9740;BME280;4909;42.680;26.324;2023-09-12T04:44:51;98806.66;;;20.18;73.81
9740;BME280;4909;42.680;26.324;2023-09-12T04:47:18;98811.28;;;20.27;73.51
9740;BME280;4909;42.680;26.324;2023-09-12T04:49:45;98804.28;;;20.24;73.01
9740;BME280;4909;42.680;26.324;2023-09-12T04:52:12;98803.72;;;20.32;72.99
9740;BME280;4909;42.680;26.324;2023-09-12T04:54:40;98807.88;;;20.36;72.87
9740;BME280;4909;42.680;26.324;2023-09-12T04:57:07;98801.75;;;20.34;73.04
9740;BME280;4909;42.680;26.324;2023-09-12T04:59:34;98801.38;;;20.38;72.77
9740;BME280;4909;42.680;26.324;2023-09-12T05:02:01;98799.91;;;20.34;72.75
9740;BME280;4909;42.680;26.324;2023-09-12T05:04:28;98801.03;;;20.32;72.84
9740;BME280;4909;42.680;26.324;2023-09-12T05:06:55;98806.75;;;20.38;73.06
9740;BME280;4909;42.680;26.324;2023-09-12T05:09:22;98805.66;;;20.41;73.00
9740;BME280;4909;42.680;26.324;2023-09-12T05:11:50;98805.28;;;20.46;72.43
9740;BME280;4909;42.680;26.324;2023-09-12T05:14:16;98807.13;;;20.45;72.28
9740;BME280;4909;42.680;26.324;2023-09-12T05:16:43;98811.78;;;20.43;72.61
9740;BME280;4909;42.680;26.324;2023-09-12T05:19:10;98799.63;;;20.49;72.11
9740;BME280;4909;42.680;26.324;2023-09-12T05:21:37;98800.84;;;20.56;71.53
9740;BME280;4909;42.680;26.324;2023-09-12T05:24:04;98807.22;;;20.55;72.18
9740;BME280;4909;42.680;26.324;2023-09-12T05:26:31;98792.66;;;20.57;72.08
9740;BME280;4909;42.680;26.324;2023-09-12T05:28:59;98788.44;;;20.64;71.86
9740;BME280;4909;42.680;26.324;2023-09-12T05:31:26;98801.41;;;20.81;71.69
9740;BME280;4909;42.680;26.324;2023-09-12T05:33:53;98811.91;;;20.85;71.68
9740;BME280;4909;42.680;26.324;2023-09-12T05:36:20;98805.41;;;20.87;71.37
9740;BME280;4909;42.680;26.324;2023-09-12T05:38:47;98807.97;;;20.89;71.40
9740;BME280;4909;42.680;26.324;2023-09-12T05:41:13;98813.72;;;20.95;71.41
9740;BME280;4909;42.680;26.324;2023-09-12T05:43:40;98809.38;;;21.04;71.40
9740;BME280;4909;42.680;26.324;2023-09-12T05:46:08;98814.66;;;21.05;71.15
9740;BME280;4909;42.680;26.324;2023-09-12T05:48:35;98810.34;;;21.14;70.49
9740;BME280;4909;42.680;26.324;2023-09-12T05:51:02;98813.25;;;21.22;70.68
9740;BME280;4909;42.680;26.324;2023-09-12T05:53:29;98813.50;;;21.40;70.50
9740;BME280;4909;42.680;26.324;2023-09-12T05:55:56;98804.81;;;21.36;70.28
9740;BME280;4909;42.680;26.324;2023-09-12T05:58:22;98812.53;;;21.41;70.96
9740;BME280;4909;42.680;26.324;2023-09-12T06:00:49;98807.94;;;21.52;70.12
9740;BME280;4909;42.680;26.324;2023-09-12T06:03:18;98814.31;;;21.72;69.93
9740;BME280;4909;42.680;26.324;2023-09-12T06:05:45;98796.16;;;21.84;69.00
9740;BME280;4909;42.680;26.324;2023-09-12T06:08:11;98813.16;;;21.95;68.78
9740;BME280;4909;42.680;26.324;2023-09-12T06:10:38;98813.03;;;21.97;69.19
9740;BME280;4909;42.680;26.324;2023-09-12T06:13:05;98811.91;;;21.99;69.05
9740;BME280;4909;42.680;26.324;2023-09-12T06:15:31;98812.56;;;22.22;68.67
9740;BME280;4909;42.680;26.324;2023-09-12T06:17:58;98817.72;;;22.25;68.37
9740;BME280;4909;42.680;26.324;2023-09-12T06:20:26;98817.81;;;22.14;68.90
9740;BME280;4909;42.680;26.324;2023-09-12T06:22:53;98816.88;;;22.34;68.02
9740;BME280;4909;42.680;26.324;2023-09-12T06:25:20;98820.66;;;22.62;67.54
9740;BME280;4909;42.680;26.324;2023-09-12T06:27:46;98826.84;;;22.74;67.05
9740;BME280;4909;42.680;26.324;2023-09-12T06:30:14;98822.72;;;22.79;66.57
9740;BME280;4909;42.680;26.324;2023-09-12T06:32:41;98826.56;;;22.96;66.26
9740;BME280;4909;42.680;26.324;2023-09-12T06:35:08;98825.16;;;23.02;65.99
9740;BME280;4909;42.680;26.324;2023-09-12T06:37:37;98819.16;;;22.79;67.04
9740;BME280;4909;42.680;26.324;2023-09-12T06:40:06;98821.69;;;22.80;66.97
9740;BME280;4909;42.680;26.324;2023-09-12T06:42:32;98823.72;;;22.88;66.60
9740;BME280;4909;42.680;26.324;2023-09-12T06:44:59;98821.72;;;22.90;65.48
9740;BME280;4909;42.680;26.324;2023-09-12T06:47:26;98818.59;;;22.85;65.56
9740;BME280;4909;42.680;26.324;2023-09-12T06:49:53;98830.13;;;22.77;66.88
9740;BME280;4909;42.680;26.324;2023-09-12T06:52:19;98825.00;;;22.84;66.51
9740;BME280;4909;42.680;26.324;2023-09-12T06:54:47;98830.44;;;23.13;65.93
9740;BME280;4909;42.680;26.324;2023-09-12T06:57:14;98827.00;;;23.39;64.56
9740;BME280;4909;42.680;26.324;2023-09-12T06:59:41;98828.28;;;23.64;63.93
9740;BME280;4909;42.680;26.324;2023-09-12T07:02:08;98831.47;;;23.97;61.99
9740;BME280;4909;42.680;26.324;2023-09-12T07:04:35;98831.88;;;24.02;61.65
9740;BME280;4909;42.680;26.324;2023-09-12T07:07:02;98841.28;;;24.07;60.99
9740;BME280;4909;42.680;26.324;2023-09-12T07:09:29;98845.84;;;24.16;60.63
9740;BME280;4909;42.680;26.324;2023-09-12T07:11:58;98849.34;;;24.36;59.98
9740;BME280;4909;42.680;26.324;2023-09-12T07:14:24;98851.25;;;24.53;58.92
9740;BME280;4909;42.680;26.324;2023-09-12T07:16:51;98848.69;;;24.52;59.04
9740;BME280;4909;42.680;26.324;2023-09-12T07:19:18;98843.66;;;24.57;59.19
9740;BME280;4909;42.680;26.324;2023-09-12T07:21:44;98852.28;;;24.70;58.41
9740;BME280;4909;42.680;26.324;2023-09-12T07:24:11;98847.06;;;24.86;57.87
9740;BME280;4909;42.680;26.324;2023-09-12T07:26:38;98826.53;;;24.74;57.01
9740;BME280;4909;42.680;26.324;2023-09-12T07:29:06;98833.41;;;24.78;58.07
9740;BME280;4909;42.680;26.324;2023-09-12T07:31:33;98834.22;;;24.88;58.60
9740;BME280;4909;42.680;26.324;2023-09-12T07:34:00;98846.19;;;24.86;57.80
9740;BME280;4909;42.680;26.324;2023-09-12T07:36:27;98838.56;;;24.99;57.52
9740;BME280;4909;42.680;26.324;2023-09-12T07:38:54;98840.41;;;24.98;57.90
9740;BME280;4909;42.680;26.324;2023-09-12T07:41:20;98849.91;;;25.30;56.18
9740;BME280;4909;42.680;26.324;2023-09-12T07:43:47;98830.59;;;25.76;53.62
9740;BME280;4909;42.680;26.324;2023-09-12T07:46:15;98839.91;;;25.66;54.33
9740;BME280;4909;42.680;26.324;2023-09-12T07:48:42;98832.47;;;26.02;53.27
9740;BME280;4909;42.680;26.324;2023-09-12T07:51:13;98828.97;;;26.09;53.08
9740;BME280;4909;42.680;26.324;2023-09-12T07:53:41;98818.25;;;25.82;52.39
9740;BME280;4909;42.680;26.324;2023-09-12T07:56:08;98830.50;;;26.37;52.11
9740;BME280;4909;42.680;26.324;2023-09-12T07:58:35;98828.41;;;27.40;48.42
9740;BME280;4909;42.680;26.324;2023-09-12T08:01:05;98819.31;;;28.20;44.79
9740;BME280;4909;42.680;26.324;2023-09-12T08:03:33;98841.81;;;28.77;44.04
9740;BME280;4909;42.680;26.324;2023-09-12T08:06:00;98842.88;;;29.53;41.64
9740;BME280;4909;42.680;26.324;2023-09-12T08:08:27;98844.28;;;29.86;40.85
9740;BME280;4909;42.680;26.324;2023-09-12T08:10:53;98840.88;;;29.84;41.03
9740;BME280;4909;42.680;26.324;2023-09-12T08:13:21;98834.44;;;30.00;40.30
9740;BME280;4909;42.680;26.324;2023-09-12T08:15:48;98834.59;;;29.61;41.56
9740;BME280;4909;42.680;26.324;2023-09-12T08:18:14;98838.91;;;29.55;41.40
9740;BME280;4909;42.680;26.324;2023-09-12T08:20:43;98835.97;;;29.42;42.00
9740;BME280;4909;42.680;26.324;2023-09-12T08:23:10;98837.69;;;29.12;42.54
9740;BME280;4909;42.680;26.324;2023-09-12T08:25:37;98834.63;;;28.76;43.47
9740;BME280;4909;42.680;26.324;2023-09-12T08:28:04;98830.72;;;28.71;43.56
9740;BME280;4909;42.680;26.324;2023-09-12T08:30:31;98836.00;;;28.80;43.19
9740;BME280;4909;42.680;26.324;2023-09-12T08:32:58;98832.81;;;28.61;43.15
9740;BME280;4909;42.680;26.324;2023-09-12T08:35:28;98828.22;;;28.53;43.13
9740;BME280;4909;42.680;26.324;2023-09-12T08:37:56;98812.16;;;27.95;44.11
9740;BME280;4909;42.680;26.324;2023-09-12T08:40:23;98823.28;;;27.45;45.36
9740;BME280;4909;42.680;26.324;2023-09-12T08:42:51;98821.91;;;27.33;45.92
9740;BME280;4909;42.680;26.324;2023-09-12T08:45:19;98826.03;;;27.53;44.08
9740;BME280;4909;42.680;26.324;2023-09-12T08:47:51;98818.69;;;27.70;45.03
9740;BME280;4909;42.680;26.324;2023-09-12T08:50:19;98820.72;;;27.43;44.94
9740;BME280;4909;42.680;26.324;2023-09-12T08:52:48;98819.03;;;27.50;44.48
9740;BME280;4909;42.680;26.324;2023-09-12T08:55:17;98822.09;;;27.72;45.40
9740;BME280;4909;42.680;26.324;2023-09-12T08:57:44;98815.09;;;27.85;44.08
9740;BME280;4909;42.680;26.324;2023-09-12T09:00:14;98813.03;;;28.12;43.53
9740;BME280;4909;42.680;26.324;2023-09-12T09:02:42;98817.72;;;28.34;42.94
9740;BME280;4909;42.680;26.324;2023-09-12T09:05:10;98814.28;;;28.40;42.24
9740;BME280;4909;42.680;26.324;2023-09-12T09:07:38;98811.44;;;28.25;42.29
9740;BME280;4909;42.680;26.324;2023-09-12T09:10:06;98813.91;;;28.51;42.30
9740;BME280;4909;42.680;26.324;2023-09-12T09:12:35;98807.09;;;28.47;42.11
9740;BME280;4909;42.680;26.324;2023-09-12T09:15:20;98812.22;;;28.81;41.10
9740;BME280;4909;42.680;26.324;2023-09-12T09:17:47;98803.31;;;28.87;40.70
9740;BME280;4909;42.680;26.324;2023-09-12T09:20:22;98804.88;;;28.50;41.05
9740;BME280;4909;42.680;26.324;2023-09-12T09:22:56;98794.16;;;28.33;41.91
9740;BME280;4909;42.680;26.324;2023-09-12T09:25:23;98798.97;;;28.31;41.83
9740;BME280;4909;42.680;26.324;2023-09-12T09:27:51;98807.28;;;28.45;42.18
9740;BME280;4909;42.680;26.324;2023-09-12T09:30:18;98793.03;;;28.19;40.99
9740;BME280;4909;42.680;26.324;2023-09-12T09:32:45;98789.97;;;28.14;43.20
9740;BME280;4909;42.680;26.324;2023-09-12T09:35:13;98801.00;;;28.37;42.50
9740;BME280;4909;42.680;26.324;2023-09-12T09:37:41;98800.53;;;28.09;41.35
9740;BME280;4909;42.680;26.324;2023-09-12T09:40:08;98795.66;;;27.80;42.56
9740;BME280;4909;42.680;26.324;2023-09-12T09:42:35;98799.78;;;27.68;43.27
9740;BME280;4909;42.680;26.324;2023-09-12T09:45:05;98782.88;;;27.40;43.10
9740;BME280;4909;42.680;26.324;2023-09-12T09:47:32;98787.50;;;27.72;43.44
9740;BME280;4909;42.680;26.324;2023-09-12T09:49:59;98776.25;;;27.67;43.36
9740;BME280;4909;42.680;26.324;2023-09-12T09:52:26;98785.09;;;27.37;43.70
9740;BME280;4909;42.680;26.324;2023-09-12T09:54:53;98782.91;;;27.32;44.13
9740;BME280;4909;42.680;26.324;2023-09-12T09:57:20;98785.28;;;27.67;43.53
9740;BME280;4909;42.680;26.324;2023-09-12T09:59:49;98783.41;;;27.76;42.08
9740;BME280;4909;42.680;26.324;2023-09-12T10:02:19;98782.06;;;27.72;43.01
9740;BME280;4909;42.680;26.324;2023-09-12T10:04:49;98782.38;;;27.77;42.16
9740;BME280;4909;42.680;26.324;2023-09-12T10:07:17;98775.19;;;27.84;42.65
9740;BME280;4909;42.680;26.324;2023-09-12T10:09:44;98783.72;;;27.97;42.82
9740;BME280;4909;42.680;26.324;2023-09-12T10:12:12;98770.25;;;27.88;41.30
9740;BME280;4909;42.680;26.324;2023-09-12T10:14:39;98778.28;;;27.81;42.16
9740;BME280;4909;42.680;26.324;2023-09-12T10:17:07;98774.34;;;27.92;42.23
9740;BME280;4909;42.680;26.324;2023-09-12T10:19:39;98764.66;;;27.65;42.52
9740;BME280;4909;42.680;26.324;2023-09-12T10:22:12;98776.59;;;27.56;42.88
9740;BME280;4909;42.680;26.324;2023-09-12T10:24:42;98772.16;;;27.55;42.72
9740;BME280;4909;42.680;26.324;2023-09-12T10:27:11;98772.69;;;27.50;42.74
9740;BME280;4909;42.680;26.324;2023-09-12T10:29:38;98774.22;;;27.61;42.62
9740;BME280;4909;42.680;26.324;2023-09-12T10:32:06;98764.69;;;27.57;42.40
9740;BME280;4909;42.680;26.324;2023-09-12T10:34:32;98763.47;;;27.59;43.04
9740;BME280;4909;42.680;26.324;2023-09-12T10:37:03;98764.47;;;27.75;41.73
9740;BME280;4909;42.680;26.324;2023-09-12T10:39:32;98759.59;;;27.54;42.97
9740;BME280;4909;42.680;26.324;2023-09-12T10:41:59;98754.94;;;27.46;43.03
9740;BME280;4909;42.680;26.324;2023-09-12T10:44:25;98756.34;;;27.50;43.16
9740;BME280;4909;42.680;26.324;2023-09-12T10:46:53;98760.25;;;27.48;42.91
9740;BME280;4909;42.680;26.324;2023-09-12T10:49:21;98756.16;;;27.28;43.13
9740;BME280;4909;42.680;26.324;2023-09-12T10:51:49;98751.72;;;27.43;43.06
9740;BME280;4909;42.680;26.324;2023-09-12T10:54:23;98747.13;;;27.27;43.42
9740;BME280;4909;42.680;26.324;2023-09-12T10:57:02;98743.88;;;27.48;43.13
9740;BME280;4909;42.680;26.324;2023-09-12T10:59:29;98747.25;;;27.74;42.77
9740;BME280;4909;42.680;26.324;2023-09-12T11:02:29;98738.06;;;27.75;42.73
9740;BME280;4909;42.680;26.324;2023-09-12T11:04:57;98739.28;;;27.73;42.12
9740;BME280;4909;42.680;26.324;2023-09-12T11:07:31;98736.06;;;27.53;42.33
9740;BME280;4909;42.680;26.324;2023-09-12T11:10:19;98740.47;;;27.46;42.36
9740;BME280;4909;42.680;26.324;2023-09-12T11:12:48;98737.78;;;27.30;42.81
9740;BME280;4909;42.680;26.324;2023-09-12T11:15:15;98732.66;;;27.35;42.91
9740;BME280;4909;42.680;26.324;2023-09-12T11:17:43;98694.50;;;27.18;43.01
9740;BME280;4909;42.680;26.324;2023-09-12T11:20:10;98721.56;;;27.36;42.78
9740;BME280;4909;42.680;26.324;2023-09-12T11:22:39;98717.63;;;27.55;42.92
9740;BME280;4909;42.680;26.324;2023-09-12T11:25:18;98701.09;;;27.40;42.79
9740;BME280;4909;42.680;26.324;2023-09-12T11:28:01;98709.81;;;27.44;42.37
9740;BME280;4909;42.680;26.324;2023-09-12T11:30:29;98710.47;;;27.46;42.21
9740;BME280;4909;42.680;26.324;2023-09-12T11:32:57;98692.63;;;27.27;42.62
9740;BME280;4909;42.680;26.324;2023-09-12T11:35:25;98713.56;;;27.43;42.51
9740;BME280;4909;42.680;26.324;2023-09-12T11:37:54;98699.78;;;27.28;43.22
9740;BME280;4909;42.680;26.324;2023-09-12T11:40:25;98701.31;;;27.39;43.36
9740;BME280;4909;42.680;26.324;2023-09-12T11:42:52;98696.88;;;27.38;43.66
9740;BME280;4909;42.680;26.324;2023-09-12T11:45:19;98703.00;;;27.48;42.60
9740;BME280;4909;42.680;26.324;2023-09-12T11:47:47;98696.88;;;27.54;42.79
9740;BME280;4909;42.680;26.324;2023-09-12T11:50:28;98693.78;;;27.57;42.65
9740;BME280;4909;42.680;26.324;2023-09-12T11:53:02;98693.78;;;27.57;43.53
9740;BME280;4909;42.680;26.324;2023-09-12T11:55:32;98697.19;;;27.67;42.87
9740;BME280;4909;42.680;26.324;2023-09-12T11:57:59;98692.59;;;27.43;42.94
9740;BME280;4909;42.680;26.324;2023-09-12T12:00:27;98689.84;;;27.59;42.62
9740;BME280;4909;42.680;26.324;2023-09-12T12:02:54;98693.63;;;27.50;43.08
9740;BME280;4909;42.680;26.324;2023-09-12T12:05:22;98685.63;;;27.33;43.25
9740;BME280;4909;42.680;26.324;2023-09-12T12:07:49;98688.00;;;27.44;43.41
9740;BME280;4909;42.680;26.324;2023-09-12T12:10:17;98686.31;;;27.51;43.13
9740;BME280;4909;42.680;26.324;2023-09-12T12:12:45;98680.00;;;27.50;42.84
9740;BME280;4909;42.680;26.324;2023-09-12T12:15:12;98637.44;;;27.25;43.44
9740;BME280;4909;42.680;26.324;2023-09-12T12:17:40;98682.19;;;27.63;42.92
9740;BME280;4909;42.680;26.324;2023-09-12T12:20:09;98675.91;;;27.54;42.75
9740;BME280;4909;42.680;26.324;2023-09-12T12:22:36;98671.81;;;27.58;42.18
9740;BME280;4909;42.680;26.324;2023-09-12T12:25:06;98669.09;;;27.58;42.21
9740;BME280;4909;42.680;26.324;2023-09-12T12:27:35;98671.63;;;27.60;42.55
9740;BME280;4909;42.680;26.324;2023-09-12T12:30:05;98672.66;;;27.51;42.98
9740;BME280;4909;42.680;26.324;2023-09-12T12:32:32;98670.28;;;27.48;42.83
9740;BME280;4909;42.680;26.324;2023-09-12T12:34:59;98677.25;;;27.42;43.51
9740;BME280;4909;42.680;26.324;2023-09-12T12:37:28;98671.81;;;27.42;43.44
9740;BME280;4909;42.680;26.324;2023-09-12T12:39:57;98668.59;;;27.39;43.45
9740;BME280;4909;42.680;26.324;2023-09-12T12:42:24;98666.53;;;27.41;43.62
9740;BME280;4909;42.680;26.324;2023-09-12T12:44:53;98667.75;;;27.22;43.92
9740;BME280;4909;42.680;26.324;2023-09-12T12:47:22;98667.22;;;27.27;43.94
9740;BME280;4909;42.680;26.324;2023-09-12T12:49:50;98663.47;;;27.44;44.03
9740;BME280;4909;42.680;26.324;2023-09-12T12:52:22;98646.59;;;27.40;43.17
9740;BME280;4909;42.680;26.324;2023-09-12T12:54:49;98649.16;;;27.50;43.31
9740;BME280;4909;42.680;26.324;2023-09-12T12:57:18;98665.19;;;27.53;43.20
9740;BME280;4909;42.680;26.324;2023-09-12T12:59:46;98661.41;;;27.62;42.68
9740;BME280;4909;42.680;26.324;2023-09-12T13:02:13;98650.00;;;27.58;42.27
9740;BME280;4909;42.680;26.324;2023-09-12T13:04:41;98659.03;;;27.51;42.28
9740;BME280;4909;42.680;26.324;2023-09-12T13:07:07;98657.81;;;27.45;42.66
9740;BME280;4909;42.680;26.324;2023-09-12T13:09:36;98662.78;;;27.50;43.46
9740;BME280;4909;42.680;26.324;2023-09-12T13:12:05;98660.50;;;27.70;42.68
9740;BME280;4909;42.680;26.324;2023-09-12T13:14:32;98666.81;;;27.70;42.59
9740;BME280;4909;42.680;26.324;2023-09-12T13:16:59;98660.72;;;27.68;42.63